KAGC/AGC METAR and TAF weather

Enter ICAO airport designator
Station Type Date Time Source
KAGC METAR 2019/08/25 12:53 UTC NOAA

KAGC 251253Z 07004KT 10SM CLR 15/11 A3024 RMK AO2 SLP242 T01500111


Station Type Date Time Source
KAGC Decoded METAR 2019/08/25 12:53 UTC NOAA

Station name not available
Aug 25, 2019 - 08:53 AM EDT / 2019.08.25 1253 UTC
Wind: from the ENE (070 degrees) at 5 MPH (4 KT):0
Visibility: 10 mile(s):0
Sky conditions: clear
Temperature: 59.0 F (15.0 C)
Dew Point: 52.0 F (11.1 C)
Relative Humidity: 77%
Pressure (altimeter): 30.24 in. Hg (1024 hPa)
ob: KAGC 251253Z 07004KT 10SM CLR 15/11 A3024 RMK AO2 SLP242 T01500111
cycle: 13

Station Type Date Time Source
KAGC TAF 2019/08/25 12:36 UTC NOAA

TAF KAGC 251135Z 2512/2612 VRB03KT P6SM SKC
FM251400 10008KT P6SM SKC

Example: see airport list